Time;durP1;ratioP1;P1;durP2;ratioP2;P2;SDS_P1;SDS_P2;PMS_P1;PMS_P2;Temp;Humidity;BMP_temperature;BMP_pressure;BME280_temperature;BME280_humidity;BME280_pressure;Samples;Min_cycle;Max_cycle;Signal;HPM_P1;HPM_P2
2023/01/05 00:01:30;;;;;;;0.60;0.60;;;10.00;99.90;;;;;;4992089;28;20966;-68
2023/01/05 00:03:56;;;;;;;0.70;0.70;;;9.90;99.90;;;;;;4992487;28;20176;-69
2023/01/05 00:06:21;;;;;;;0.70;0.67;;;9.90;99.90;;;;;;4992386;28;20330;-69
2023/01/05 00:08:47;;;;;;;0.80;0.80;;;9.90;99.90;;;;;;4992175;28;20557;-69
2023/01/05 00:22:29;;;;;;;0.50;0.50;;;9.90;99.90;;;;;;4992385;28;20518;-68
2023/01/05 00:25:10;;;;;;;0.60;0.60;;;9.90;99.90;;;;;;4992370;28;20942;-69
2023/01/05 00:27:36;;;;;;;0.70;0.63;;;10.00;99.90;;;;;;4992364;28;20509;-69
2023/01/05 00:30:02;;;;;;;0.53;0.50;;;10.00;99.90;;;;;;4992026;28;20537;-69
2023/01/05 00:32:28;;;;;;;0.50;0.50;;;10.00;99.90;;;;;;4992246;28;20504;-69
2023/01/05 00:34:55;;;;;;;0.60;0.60;;;10.00;99.90;;;;;;4991999;28;20916;-69
2023/01/05 00:37:22;;;;;;;0.80;0.80;;;10.00;99.90;;;;;;4992127;28;20215;-68
2023/01/05 00:39:48;;;;;;;0.80;0.60;;;10.10;99.90;;;;;;4991712;28;20470;-69
2023/01/05 00:42:13;;;;;;;0.93;0.60;;;10.00;99.90;;;;;;4992125;28;20950;-69
2023/01/05 00:44:39;;;;;;;0.90;0.60;;;10.00;99.90;;;;;;4998509;28;20183;-69
2023/01/05 00:47:04;;;;;;;0.83;0.70;;;10.00;99.90;;;;;;5010613;28;20175;-69
2023/01/05 00:49:30;;;;;;;0.50;0.50;;;10.00;99.90;;;;;;5006743;28;20219;-69
2023/01/05 00:51:55;;;;;;;0.73;0.60;;;10.10;99.90;;;;;;4995515;28;20187;-69
2023/01/05 00:54:21;;;;;;;0.60;0.60;;;10.10;99.90;;;;;;4995446;28;20183;-69
2023/01/05 00:56:48;;;;;;;0.77;0.60;;;10.10;99.90;;;;;;4995545;28;20202;-69
2023/01/05 00:59:14;;;;;;;0.97;0.53;;;10.10;99.90;;;;;;4995042;28;20535;-69
2023/01/05 01:01:40;;;;;;;0.60;0.53;;;10.10;99.90;;;;;;4995193;28;20545;-69
2023/01/05 01:04:05;;;;;;;0.50;0.50;;;10.10;99.90;;;;;;4995097;28;20511;-69
2023/01/05 01:06:31;;;;;;;0.77;0.70;;;10.20;99.90;;;;;;4995526;28;20541;-69
2023/01/05 01:08:57;;;;;;;0.67;0.67;;;10.20;99.90;;;;;;4994959;28;20184;-69
2023/01/05 01:11:23;;;;;;;0.50;0.43;;;10.20;99.90;;;;;;4995094;28;20231;-69
2023/01/05 01:13:48;;;;;;;1.10;0.60;;;10.20;99.90;;;;;;4995206;28;20466;-69
2023/01/05 01:16:15;;;;;;;0.60;0.60;;;10.20;99.90;;;;;;4995090;28;20238;-69
2023/01/05 01:18:41;;;;;;;1.00;0.70;;;10.20;99.90;;;;;;4994768;28;20266;-69
2023/01/05 01:21:07;;;;;;;0.50;0.47;;;10.20;99.90;;;;;;4994928;28;20891;-69
2023/01/05 01:23:34;;;;;;;4.53;0.40;;;10.20;99.90;;;;;;4995027;28;20415;-68
2023/01/05 01:26:07;;;;;;;0.60;0.60;;;10.20;99.90;;;;;;4994793;28;20513;-68
2023/01/05 01:28:33;;;;;;;0.50;0.50;;;10.20;99.90;;;;;;4994632;28;20419;-69
2023/01/05 01:30:59;;;;;;;0.50;0.50;;;10.20;99.90;;;;;;4994636;28;20474;-69
2023/01/05 01:33:24;;;;;;;0.40;0.40;;;10.20;99.90;;;;;;4994685;28;20429;-68
2023/01/05 01:35:50;;;;;;;1.37;0.50;;;10.20;99.90;;;;;;4994729;28;20238;-69
2023/01/05 01:38:15;;;;;;;0.50;0.50;;;10.20;99.90;;;;;;4994394;28;20223;-69
2023/01/05 01:40:43;;;;;;;0.50;0.50;;;10.20;99.90;;;;;;4994612;28;20303;-69
2023/01/05 01:43:18;;;;;;;0.50;0.50;;;10.20;99.90;;;;;;4994542;28;20670;-69
2023/01/05 01:45:44;;;;;;;0.90;0.50;;;10.20;99.90;;;;;;4994541;28;20425;-69
2023/01/05 01:48:16;;;;;;;2.17;0.77;;;10.20;99.90;;;;;;4994322;28;20454;-69
2023/01/05 01:50:49;;;;;;;0.73;0.60;;;10.20;99.90;;;;;;4994346;28;20449;-68
2023/01/05 01:53:26;;;;;;;1.83;0.70;;;10.20;99.90;;;;;;4994470;28;20786;-69
2023/01/05 01:55:54;;;;;;;0.50;0.50;;;10.20;99.90;;;;;;4994376;28;20449;-69
2023/01/05 01:58:22;;;;;;;0.73;0.50;;;10.20;99.90;;;;;;4993149;28;20430;-69
2023/01/05 02:00:48;;;;;;;0.60;0.50;;;10.10;99.90;;;;;;4994159;28;20565;-68
2023/01/05 02:03:13;;;;;;;0.80;0.50;;;10.10;99.90;;;;;;4994130;28;20554;-69
2023/01/05 02:05:39;;;;;;;0.60;0.60;;;10.10;99.90;;;;;;4994189;28;20255;-69
2023/01/05 02:08:15;;;;;;;0.60;0.60;;;10.10;99.90;;;;;;4994169;28;20245;-70
2023/01/05 02:11:02;;;;;;;0.60;0.60;;;10.10;99.90;;;;;;4993953;28;20714;-69
2023/01/05 02:13:46;;;;;;;4.23;1.33;;;10.20;99.90;;;;;;4994074;28;20673;-69
2023/01/05 02:16:37;;;;;;;0.50;0.50;;;10.20;99.90;;;;;;4993873;28;20489;-69
2023/01/05 02:19:33;;;;;;;0.50;0.50;;;10.10;99.90;;;;;;4993478;28;20422;-68
2023/01/05 02:22:16;;;;;;;0.60;0.60;;;10.20;99.90;;;;;;4993917;28;20431;-69
2023/01/05 02:24:58;;;;;;;0.80;0.60;;;10.20;99.90;;;;;;4993819;28;20418;-69
2023/01/05 02:27:47;;;;;;;0.70;0.50;;;10.20;99.90;;;;;;4993724;28;20415;-69
2023/01/05 02:30:49;;;;;;;0.70;0.50;;;10.20;99.90;;;;;;4993406;28;20955;-69
2023/01/05 02:33:26;;;;;;;1.70;0.50;;;10.20;99.90;;;;;;4992151;28;20517;-69
2023/01/05 02:36:09;;;;;;;0.60;0.50;;;10.20;99.90;;;;;;4993595;28;20418;-69
2023/01/05 02:38:44;;;;;;;0.50;0.50;;;10.20;99.90;;;;;;4993287;28;20791;-68
2023/01/05 02:41:18;;;;;;;0.50;0.43;;;10.20;99.90;;;;;;4993237;28;20461;-69
2023/01/05 02:43:44;;;;;;;0.60;0.60;;;10.20;99.90;;;;;;4993528;28;20406;-69
2023/01/05 02:46:10;;;;;;;2.77;0.60;;;10.20;99.90;;;;;;4993358;28;20415;-69
2023/01/05 02:48:37;;;;;;;0.60;0.60;;;10.20;99.90;;;;;;4992953;28;20560;-69
2023/01/05 02:51:11;;;;;;;1.33;0.50;;;10.20;99.90;;;;;;4991945;28;20615;-70
2023/01/05 02:53:41;;;;;;;0.50;0.50;;;10.20;99.90;;;;;;4997707;28;20524;-69
2023/01/05 02:56:40;;;;;;;0.80;0.53;;;10.20;99.90;;;;;;5000100;28;20440;-69
2023/01/05 02:59:13;;;;;;;0.70;0.70;;;10.20;99.90;;;;;;4946570;28;20443;-69
2023/01/05 03:01:46;;;;;;;0.50;0.50;;;10.20;99.90;;;;;;4973789;28;20463;-69
2023/01/05 03:04:21;;;;;;;1.07;0.50;;;10.20;99.90;;;;;;4984670;28;20430;-68
2023/01/05 03:06:58;;;;;;;0.70;0.60;;;10.20;99.90;;;;;;4992880;28;20520;-69
2023/01/05 03:09:27;;;;;;;0.77;0.57;;;10.20;99.90;;;;;;4992752;28;20816;-68
2023/01/05 03:15:05;;;;;;;0.83;0.53;;;10.20;99.90;;;;;;4993013;28;20946;-69
2023/01/05 03:17:41;;;;;;;0.50;0.50;;;10.20;99.90;;;;;;4973455;28;20497;-69
2023/01/05 03:20:08;;;;;;;0.70;0.60;;;10.20;99.90;;;;;;4973186;28;20467;-69
2023/01/05 03:37:23;;;;;;;0.53;0.50;;;10.30;99.90;;;;;;4992826;28;20414;-69
2023/01/05 03:39:49;;;;;;;2.10;0.60;;;10.30;99.90;;;;;;4992351;28;20466;-69
2023/01/05 03:42:15;;;;;;;0.60;0.50;;;10.30;99.90;;;;;;4992498;28;20418;-69
2023/01/05 03:44:44;;;;;;;0.60;0.50;;;10.30;99.90;;;;;;4992789;28;20187;-68
2023/01/05 03:47:10;;;;;;;0.67;0.50;;;10.30;99.90;;;;;;4992570;28;20427;-69
2023/01/05 03:49:36;;;;;;;0.50;0.50;;;10.30;99.90;;;;;;4992309;28;20427;-69
2023/01/05 03:52:02;;;;;;;0.50;0.40;;;10.40;99.90;;;;;;4992582;28;20497;-68
2023/01/05 03:54:27;;;;;;;0.50;0.50;;;10.50;99.90;;;;;;4992540;28;20514;-69
2023/01/05 03:56:53;;;;;;;0.50;0.50;;;10.50;99.90;;;;;;4992408;28;20175;-69
2023/01/05 03:59:19;;;;;;;0.50;0.50;;;10.50;99.90;;;;;;4992018;28;20203;-69
2023/01/05 04:01:45;;;;;;;0.50;0.50;;;10.60;99.90;;;;;;4992352;28;20199;-69
2023/01/05 04:04:10;;;;;;;0.60;0.40;;;10.60;99.90;;;;;;4992646;28;20793;-68
2023/01/05 04:06:36;;;;;;;0.50;0.50;;;10.70;99.90;;;;;;4992502;28;20610;-69
2023/01/05 04:09:01;;;;;;;0.47;0.40;;;10.70;99.90;;;;;;4992174;28;20652;-69
2023/01/05 04:11:27;;;;;;;0.70;0.60;;;10.70;99.90;;;;;;4992230;28;20226;-69
2023/01/05 04:13:53;;;;;;;0.50;0.40;;;10.70;99.90;;;;;;4990329;28;20203;-69
2023/01/05 04:16:18;;;;;;;0.40;0.40;;;10.70;99.90;;;;;;5007616;28;20214;-68
2023/01/05 04:18:44;;;;;;;2.30;0.60;;;10.80;99.90;;;;;;4995646;28;20181;-69
2023/01/05 04:21:11;;;;;;;0.50;0.50;;;10.80;99.90;;;;;;4994800;28;20262;-69
2023/01/05 04:23:36;;;;;;;0.77;0.40;;;10.80;99.90;;;;;;5014190;28;20175;-69
2023/01/05 04:26:02;;;;;;;0.73;0.50;;;10.80;99.90;;;;;;5015482;28;20424;-69
2023/01/05 04:28:28;;;;;;;0.60;0.50;;;10.80;99.90;;;;;;4976323;28;20184;-69
2023/01/05 04:30:54;;;;;;;0.60;0.50;;;10.80;99.90;;;;;;4976350;28;20964;-70
2023/01/05 04:33:21;;;;;;;1.37;0.50;;;10.80;99.90;;;;;;4994189;28;20684;-69
2023/01/05 04:35:47;;;;;;;0.70;0.70;;;10.80;99.90;;;;;;4995791;28;20800;-68
2023/01/05 04:38:13;;;;;;;0.53;0.53;;;10.80;99.90;;;;;;4995511;28;20489;-70
2023/01/05 04:40:39;;;;;;;0.50;0.40;;;10.80;99.90;;;;;;4976212;28;20462;-68
2023/01/05 04:43:05;;;;;;;0.60;0.50;;;10.80;99.90;;;;;;4976409;28;20172;-69
2023/01/05 04:45:31;;;;;;;0.43;0.43;;;10.80;99.90;;;;;;4976277;28;20420;-69
2023/01/05 04:47:56;;;;;;;1.33;0.50;;;10.80;99.90;;;;;;4976192;28;20478;-68
2023/01/05 04:50:22;;;;;;;0.50;0.40;;;10.80;99.90;;;;;;4993723;28;20450;-69
2023/01/05 04:52:48;;;;;;;0.60;0.50;;;10.80;99.90;;;;;;4995549;28;20258;-70
2023/01/05 04:55:13;;;;;;;0.40;0.40;;;10.80;99.90;;;;;;4995566;28;20623;-69
2023/01/05 04:57:39;;;;;;;0.70;0.50;;;10.80;99.90;;;;;;4995438;28;20176;-68
2023/01/05 05:00:05;;;;;;;1.73;0.50;;;10.80;99.90;;;;;;4994978;28;20584;-70
2023/01/05 05:02:31;;;;;;;0.83;0.43;;;10.80;99.90;;;;;;4995316;28;20168;-69
2023/01/05 05:04:57;;;;;;;0.70;0.50;;;10.70;99.90;;;;;;4995365;28;21003;-69
2023/01/05 05:07:22;;;;;;;0.50;0.50;;;10.70;99.90;;;;;;4995330;28;20529;-68
2023/01/05 05:09:48;;;;;;;0.50;0.40;;;10.70;99.90;;;;;;4994868;28;20222;-69
2023/01/05 05:12:14;;;;;;;0.60;0.53;;;10.80;99.90;;;;;;4995741;28;20175;-68
2023/01/05 05:14:39;;;;;;;0.50;0.50;;;10.80;99.90;;;;;;4995136;28;20179;-69
2023/01/05 05:17:05;;;;;;;0.40;0.40;;;10.80;99.90;;;;;;4994975;28;20427;-68
2023/01/05 05:19:31;;;;;;;0.50;0.47;;;10.80;99.90;;;;;;4994626;28;20575;-67
2023/01/05 05:21:56;;;;;;;1.90;0.60;;;10.80;99.90;;;;;;4995093;28;20295;-68
2023/01/05 05:24:22;;;;;;;0.50;0.50;;;10.80;99.90;;;;;;4994762;28;20175;-67
2023/01/05 05:26:47;;;;;;;0.47;0.47;;;10.80;99.90;;;;;;4994990;28;20167;-68
2023/01/05 05:29:13;;;;;;;0.77;0.50;;;10.80;99.90;;;;;;4994614;28;20239;-68
2023/01/05 05:31:39;;;;;;;0.50;0.40;;;10.80;99.90;;;;;;4994218;28;20195;-67
2023/01/05 05:34:04;;;;;;;0.77;0.50;;;10.70;99.90;;;;;;4994193;28;20540;-67
2023/01/05 05:36:31;;;;;;;1.23;1.10;;;10.70;99.90;;;;;;4994787;28;20419;-67
2023/01/05 05:38:57;;;;;;;0.87;0.80;;;10.60;99.90;;;;;;4994389;28;20168;-68
2023/01/05 05:41:23;;;;;;;0.50;0.50;;;10.60;99.90;;;;;;4994359;28;20838;-68
2023/01/05 05:43:48;;;;;;;0.60;0.60;;;10.60;99.90;;;;;;4994630;28;20513;-68
2023/01/05 05:46:14;;;;;;;0.50;0.50;;;10.60;99.90;;;;;;4994611;28;20168;-67
2023/01/05 05:48:39;;;;;;;1.03;0.67;;;10.60;99.90;;;;;;4994298;28;20210;-68
2023/01/05 05:51:05;;;;;;;0.70;0.50;;;10.60;99.90;;;;;;4994422;28;20196;-68
2023/01/05 05:53:30;;;;;;;0.80;0.70;;;10.60;99.90;;;;;;4994506;28;20172;-67
2023/01/05 05:55:56;;;;;;;0.60;0.50;;;10.50;99.90;;;;;;4994358;28;20263;-67
2023/01/05 05:58:22;;;;;;;1.43;0.73;;;10.50;99.90;;;;;;4994128;28;20183;-68
2023/01/05 06:00:47;;;;;;;1.63;1.27;;;10.50;99.90;;;;;;4994176;28;20246;-67
2023/01/05 06:03:13;;;;;;;0.80;0.80;;;10.50;99.90;;;;;;4994299;28;20175;-68
2023/01/05 06:05:38;;;;;;;2.57;2.10;;;10.50;99.90;;;;;;4994123;28;20176;-68
2023/01/05 06:08:04;;;;;;;0.97;0.83;;;10.50;99.90;;;;;;4994022;28;20178;-67
2023/01/05 06:10:29;;;;;;;0.60;0.60;;;10.50;99.90;;;;;;4993633;28;20552;-67
2023/01/05 06:12:55;;;;;;;1.53;1.43;;;10.60;99.90;;;;;;4994227;28;20238;-68
2023/01/05 06:15:22;;;;;;;2.30;2.00;;;10.60;99.90;;;;;;4993817;28;20267;-68
2023/01/05 06:17:47;;;;;;;1.47;0.70;;;10.60;99.90;;;;;;4993943;28;20176;-68
2023/01/05 06:20:15;;;;;;;0.87;0.87;;;10.60;99.90;;;;;;4993483;28;21062;-67
2023/01/05 06:22:41;;;;;;;3.10;1.00;;;10.60;99.90;;;;;;4993916;28;20159;-68
2023/01/05 06:25:07;;;;;;;1.17;1.07;;;10.60;99.90;;;;;;4993848;28;20999;-68
2023/01/05 06:27:33;;;;;;;0.80;0.80;;;10.60;99.90;;;;;;4996572;28;20436;-68
2023/01/05 06:29:58;;;;;;;1.10;0.70;;;10.60;99.90;;;;;;5002738;28;20462;-68
2023/01/05 06:32:24;;;;;;;1.10;0.73;;;10.40;99.90;;;;;;4993916;28;20638;-68
2023/01/05 06:34:49;;;;;;;1.70;0.70;;;10.30;99.90;;;;;;4993580;28;20259;-68
2023/01/05 06:37:15;;;;;;;1.20;0.70;;;10.30;99.90;;;;;;4993552;28;20542;-67
2023/01/05 06:39:40;;;;;;;1.47;0.60;;;10.40;99.90;;;;;;4993382;28;20210;-68
2023/01/05 06:42:06;;;;;;;1.73;0.87;;;10.30;99.90;;;;;;4993522;28;20177;-67
2023/01/05 06:44:31;;;;;;;0.70;0.70;;;10.30;99.90;;;;;;4993137;28;20172;-69
2023/01/05 06:46:57;;;;;;;0.77;0.70;;;10.20;99.90;;;;;;4987983;28;20168;-68
2023/01/05 06:49:22;;;;;;;1.00;0.90;;;10.20;99.90;;;;;;4991332;28;20548;-68
2023/01/05 06:51:48;;;;;;;1.13;0.70;;;10.20;99.90;;;;;;4993291;28;20226;-68
2023/01/05 06:54:14;;;;;;;0.80;0.80;;;10.20;99.90;;;;;;4993266;28;20651;-67
2023/01/05 06:56:39;;;;;;;2.20;1.00;;;10.20;99.90;;;;;;4993291;28;20179;-68
2023/01/05 06:59:05;;;;;;;2.03;0.80;;;10.20;99.90;;;;;;4992936;28;20167;-68
2023/01/05 07:01:30;;;;;;;1.27;0.67;;;10.10;99.90;;;;;;4993097;28;20203;-67
2023/01/05 07:03:56;;;;;;;1.50;0.80;;;10.10;99.90;;;;;;4993179;28;20171;-68
2023/01/05 07:06:21;;;;;;;3.73;0.90;;;10.10;99.90;;;;;;4992932;28;20672;-68
2023/01/05 07:08:47;;;;;;;2.20;1.07;;;10.00;99.90;;;;;;4992774;28;20542;-68
2023/01/05 07:11:12;;;;;;;1.47;0.80;;;10.00;99.90;;;;;;4992904;28;20218;-67
2023/01/05 07:13:38;;;;;;;7.50;1.33;;;9.90;99.90;;;;;;4992959;28;20203;-68
2023/01/05 07:16:04;;;;;;;2.70;1.10;;;9.90;99.90;;;;;;4993053;28;20596;-67
2023/01/05 07:18:30;;;;;;;2.60;0.93;;;9.90;99.90;;;;;;4974451;28;20211;-70
2023/01/05 07:20:55;;;;;;;2.13;1.13;;;9.90;99.90;;;;;;4968786;28;20211;-67
2023/01/05 07:23:20;;;;;;;4.57;1.30;;;9.90;99.90;;;;;;4992355;28;20695;-69
2023/01/05 07:25:46;;;;;;;4.07;0.90;;;9.90;99.90;;;;;;4992808;28;20172;-67
2023/01/05 07:28:12;;;;;;;3.20;1.17;;;9.90;99.90;;;;;;4989062;28;20190;-68
2023/01/05 07:30:37;;;;;;;2.63;1.40;;;9.90;99.90;;;;;;4990904;28;20222;-69
2023/01/05 07:33:03;;;;;;;1.40;1.30;;;9.90;99.90;;;;;;4986674;28;20188;-67
2023/01/05 07:35:28;;;;;;;2.87;0.93;;;9.80;99.90;;;;;;4986901;28;20257;-67
2023/01/05 07:37:57;;;;;;;2.77;1.70;;;9.80;99.90;;;;;;4997194;28;20544;-68
2023/01/05 07:40:23;;;;;;;4.50;3.60;;;9.80;99.90;;;;;;4991622;28;20196;-68
2023/01/05 07:42:50;;;;;;;3.00;2.20;;;9.80;99.90;;;;;;4989913;28;20437;-68
2023/01/05 07:45:16;;;;;;;2.90;1.40;;;9.80;99.90;;;;;;4992790;28;20255;-68
2023/01/05 07:47:41;;;;;;;2.80;1.57;;;9.80;99.90;;;;;;4988231;28;21002;-69
2023/01/05 07:50:07;;;;;;;4.00;1.37;;;9.80;99.90;;;;;;4980914;28;20207;-67
2023/01/05 07:52:33;;;;;;;2.00;1.07;;;9.80;99.90;;;;;;4983247;28;20191;-67
2023/01/05 07:54:58;;;;;;;14.23;7.93;;;9.80;99.90;;;;;;4990839;28;20971;-68
2023/01/05 07:57:24;;;;;;;7.53;3.70;;;9.80;99.90;;;;;;4996224;28;20180;-69
2023/01/05 07:59:49;;;;;;;4.03;2.40;;;9.80;99.90;;;;;;4989195;28;20199;-68
2023/01/05 08:02:15;;;;;;;3.73;1.30;;;9.90;99.90;;;;;;4990482;28;20187;-67
2023/01/05 08:04:40;;;;;;;2.33;1.03;;;9.90;99.90;;;;;;4996363;28;20565;-69
2023/01/05 08:07:10;;;;;;;4.97;1.80;;;9.90;99.90;;;;;;4995733;28;20242;-67
2023/01/05 08:12:22;;;;;;;3.20;2.10;;;9.90;99.90;;;;;;4995190;28;20493;-67
2023/01/05 08:14:48;;;;;;;3.67;1.50;;;9.90;99.90;;;;;;4995996;28;20418;-67
2023/01/05 08:17:13;;;;;;;2.40;1.00;;;9.90;99.90;;;;;;4996245;28;20178;-67
2023/01/05 08:19:39;;;;;;;2.30;1.40;;;9.90;99.90;;;;;;4991947;28;20203;-67
2023/01/05 08:22:04;;;;;;;3.23;1.13;;;10.00;99.90;;;;;;4996196;28;20641;-68
2023/01/05 08:24:30;;;;;;;4.17;1.60;;;9.90;99.90;;;;;;4995494;28;20175;-68
2023/01/05 08:26:56;;;;;;;2.43;1.47;;;10.00;99.90;;;;;;4991039;28;20577;-67
2023/01/05 08:29:22;;;;;;;5.03;2.20;;;9.90;99.90;;;;;;4981904;28;20427;-67
2023/01/05 08:31:47;;;;;;;2.87;1.43;;;9.90;99.90;;;;;;4991789;28;20298;-67
2023/01/05 08:34:13;;;;;;;5.07;1.97;;;10.00;99.90;;;;;;4995255;28;20270;-67
2023/01/05 08:36:39;;;;;;;1.53;1.30;;;10.00;99.90;;;;;;4994347;28;20175;-70
2023/01/05 08:39:05;;;;;;;4.03;1.57;;;10.00;99.90;;;;;;4989149;28;20837;-67
2023/01/05 08:41:34;;;;;;;5.43;1.60;;;10.00;99.90;;;;;;4997836;28;20497;-67
2023/01/05 08:44:03;;;;;;;4.17;1.93;;;10.10;99.90;;;;;;4993746;28;20928;-68
2023/01/05 08:46:33;;;;;;;2.57;1.80;;;10.10;99.90;;;;;;4980732;28;20426;-68
2023/01/05 08:49:01;;;;;;;1.97;1.43;;;10.10;99.90;;;;;;4991011;28;20427;-68
2023/01/05 08:51:28;;;;;;;3.80;2.03;;;10.20;99.90;;;;;;4990685;28;20534;-68
2023/01/05 08:53:54;;;;;;;4.43;2.00;;;10.20;99.90;;;;;;4995520;28;20800;-66
2023/01/05 08:56:20;;;;;;;3.80;1.63;;;10.30;99.90;;;;;;4994533;28;20585;-67
2023/01/05 08:58:46;;;;;;;6.47;1.80;;;10.40;99.90;;;;;;4991877;28;20430;-67
2023/01/05 09:01:15;;;;;;;2.83;1.90;;;10.40;99.90;;;;;;4987261;28;20605;-68
2023/01/05 09:03:41;;;;;;;4.00;1.70;;;10.40;99.90;;;;;;4993771;28;20194;-67
2023/01/05 09:06:10;;;;;;;5.63;2.07;;;10.50;99.90;;;;;;4995192;28;20439;-67
2023/01/05 09:08:37;;;;;;;6.27;3.30;;;10.60;99.90;;;;;;4990490;28;20423;-67
2023/01/05 09:11:10;;;;;;;7.33;2.00;;;10.50;99.90;;;;;;4994973;28;20545;-67
2023/01/05 09:13:37;;;;;;;6.60;1.80;;;10.60;99.90;;;;;;4985134;28;20430;-67
2023/01/05 09:16:08;;;;;;;6.13;2.23;;;10.60;99.90;;;;;;4995156;28;20445;-67
2023/01/05 09:18:34;;;;;;;7.50;2.70;;;10.60;99.90;;;;;;4991445;28;20422;-68
2023/01/05 09:20:59;;;;;;;8.23;2.33;;;10.50;99.90;;;;;;4986984;28;20467;-68
2023/01/05 09:23:25;;;;;;;4.27;1.80;;;10.60;99.90;;;;;;4994957;28;20433;-68
2023/01/05 09:25:51;;;;;;;3.93;1.87;;;10.60;99.90;;;;;;4994275;28;20232;-68
2023/01/05 09:28:16;;;;;;;5.93;1.87;;;10.60;99.90;;;;;;4990762;28;20418;-67
2023/01/05 09:30:42;;;;;;;9.83;2.73;;;10.50;99.90;;;;;;4994739;28;20218;-68
2023/01/05 09:33:08;;;;;;;6.93;1.63;;;10.50;99.90;;;;;;4988020;28;20185;-67
2023/01/05 09:35:33;;;;;;;7.30;2.27;;;10.60;99.90;;;;;;4992080;28;20187;-68
2023/01/05 09:37:59;;;;;;;7.00;1.87;;;10.70;99.90;;;;;;4989901;28;20203;-68
2023/01/05 09:40:24;;;;;;;7.90;2.77;;;10.70;99.90;;;;;;5000436;28;20269;-67
2023/01/05 09:42:51;;;;;;;8.07;2.50;;;10.60;99.90;;;;;;4999977;28;20184;-68
2023/01/05 09:45:24;;;;;;;10.77;2.80;;;10.70;99.90;;;;;;4993071;28;20745;-68
2023/01/05 09:47:51;;;;;;;8.20;2.30;;;10.70;99.90;;;;;;4993694;28;20854;-69
2023/01/05 09:50:19;;;;;;;7.67;2.53;;;10.80;99.90;;;;;;4988798;28;20458;-67
2023/01/05 09:52:46;;;;;;;8.77;2.93;;;10.90;99.90;;;;;;4993562;28;20438;-67
2023/01/05 09:55:17;;;;;;;6.07;1.93;;;10.90;99.90;;;;;;4992510;28;20445;-67
2023/01/05 09:57:55;;;;;;;9.47;2.50;;;11.00;99.90;;;;;;4983435;28;20794;-69
2023/01/05 10:00:23;;;;;;;9.57;2.60;;;11.10;99.90;;;;;;4992684;28;20466;-67
2023/01/05 10:03:06;;;;;;;7.10;2.10;;;11.20;99.90;;;;;;4993373;28;20434;-67
2023/01/05 10:05:35;;;;;;;9.73;2.60;;;11.20;99.90;;;;;;4994216;28;20415;-67
2023/01/05 10:08:15;;;;;;;11.47;3.03;;;11.50;99.90;;;;;;4990626;28;20463;-67
2023/01/05 10:13:01;;;;;;;5.33;1.80;;;11.80;99.90;;;;;;4993751;28;20462;-67
2023/01/05 10:13:33;;;;;;;9.73;2.87;;;11.80;99.90;;;;;;4993258;28;20463;-66
2023/01/05 10:15:58;;;;;;;6.13;2.23;;;11.80;99.90;;;;;;4988239;28;20435;-67
2023/01/05 10:18:26;;;;;;;6.40;2.93;;;11.90;99.90;;;;;;4988296;28;21641;-69
2023/01/05 10:21:36;;;;;;;11.87;3.53;;;12.00;99.90;;;;;;4988067;28;20215;-67
2023/01/05 10:24:08;;;;;;;9.10;2.73;;;12.00;99.90;;;;;;4952747;28;20442;-68
2023/01/05 10:26:43;;;;;;;8.53;3.67;;;12.10;99.90;;;;;;4992838;28;20939;-67
2023/01/05 10:29:16;;;;;;;5.40;2.70;;;12.10;99.90;;;;;;4989395;28;20440;-70
2023/01/05 10:32:05;;;;;;;9.40;3.03;;;11.90;99.90;;;;;;4993035;28;20442;-69
2023/01/05 10:34:37;;;;;;;5.23;1.97;;;11.80;99.90;;;;;;4993596;28;20765;-67
2023/01/05 10:37:34;;;;;;;9.93;2.67;;;11.70;99.90;;;;;;4992442;28;20852;-67
2023/01/05 10:40:23;;;;;;;6.43;2.50;;;11.70;99.90;;;;;;4991524;28;20470;-67
2023/01/05 10:43:07;;;;;;;5.57;2.17;;;11.80;99.90;;;;;;4992911;28;20434;-68
2023/01/05 10:45:36;;;;;;;5.20;1.93;;;12.10;99.90;;;;;;4985776;28;20418;-68
2023/01/05 10:48:01;;;;;;;7.33;2.67;;;12.50;99.90;;;;;;4990600;28;20422;-67
2023/01/05 10:50:36;;;;;;;9.80;2.97;;;12.70;99.90;;;;;;4989816;28;20831;-68
2023/01/05 10:53:21;;;;;;;5.23;2.10;;;13.00;99.90;;;;;;5000690;28;20644;-67
2023/01/05 10:55:55;;;;;;;5.83;1.93;;;13.50;99.90;;;;;;4980974;28;20438;-67
2023/01/05 10:58:42;;;;;;;8.20;2.47;;;13.70;99.90;;;;;;4984999;28;20410;-68
2023/01/05 11:01:27;;;;;;;4.57;2.20;;;13.40;99.90;;;;;;4992452;28;20515;-69
2023/01/05 11:04:01;;;;;;;9.63;2.40;;;12.90;99.90;;;;;;4987341;28;20441;-66
2023/01/05 11:06:29;;;;;;;5.70;2.23;;;12.50;99.90;;;;;;4992903;28;20414;-67
2023/01/05 11:09:20;;;;;;;11.53;2.40;;;12.50;99.90;;;;;;4988896;28;20414;-68
2023/01/05 11:11:57;;;;;;;4.83;2.30;;;12.40;99.90;;;;;;4974026;28;20463;-68
2023/01/05 11:14:25;;;;;;;8.70;2.00;;;12.30;99.90;;;;;;4980714;28;20948;-65
2023/01/05 11:16:54;;;;;;;7.63;2.20;;;12.20;99.90;;;;;;4983143;28;20418;-67
2023/01/05 11:19:24;;;;;;;8.63;2.70;;;12.10;99.90;;;;;;4987716;28;20489;-67
2023/01/05 11:21:49;;;;;;;5.97;2.33;;;12.00;99.90;;;;;;4984048;28;20517;-66
2023/01/05 11:24:23;;;;;;;8.40;2.27;;;12.00;99.90;;;;;;4979725;28;20428;-68
2023/01/05 11:27:27;;;;;;;11.03;2.60;;;12.00;99.90;;;;;;4973282;28;20180;-69
2023/01/05 11:30:14;;;;;;;5.43;2.20;;;11.90;99.90;;;;;;4983036;28;20454;-69
2023/01/05 11:32:44;;;;;;;9.93;2.73;;;11.80;99.90;;;;;;4992735;28;20831;-70
2023/01/05 11:35:29;;;;;;;13.17;3.87;;;11.90;99.90;;;;;;4991730;28;20481;-68
2023/01/05 11:37:56;;;;;;;6.00;3.20;;;11.80;99.90;;;;;;4984757;28;20435;-69
2023/01/05 11:40:26;;;;;;;5.90;2.50;;;12.00;99.90;;;;;;4991229;28;20468;-68
2023/01/05 11:42:51;;;;;;;7.70;2.33;;;12.00;99.90;;;;;;4992375;28;20423;-69
2023/01/05 11:45:30;;;;;;;8.30;2.70;;;12.00;99.90;;;;;;4991771;28;20916;-68
2023/01/05 11:48:04;;;;;;;7.57;2.67;;;12.10;99.90;;;;;;4980879;28;20183;-68
2023/01/05 11:50:50;;;;;;;8.53;2.37;;;12.00;99.90;;;;;;4990456;28;20458;-69
2023/01/05 11:53:33;;;;;;;8.00;2.77;;;12.00;99.90;;;;;;4990258;28;20537;-69
2023/01/05 11:56:23;;;;;;;5.17;1.80;;;12.10;99.90;;;;;;4999945;28;20438;-68
2023/01/05 11:58:56;;;;;;;10.27;3.60;;;12.10;99.90;;;;;;4979220;28;20493;-68
2023/01/05 12:01:41;;;;;;;11.43;4.50;;;12.10;99.90;;;;;;5003433;28;20500;-67
2023/01/05 12:04:21;;;;;;;6.60;2.33;;;12.00;99.90;;;;;;4996200;28;20429;-68
2023/01/05 12:07:06;;;;;;;5.20;2.90;;;12.00;99.90;;;;;;4992312;28;20418;-68
2023/01/05 12:09:56;;;;;;;10.50;4.37;;;12.00;99.90;;;;;;4983821;28;20447;-69
2023/01/05 12:12:36;;;;;;;9.70;2.70;;;12.10;99.90;;;;;;4990544;28;20545;-69
2023/01/05 12:15:25;;;;;;;6.70;2.40;;;12.00;99.90;;;;;;4992248;28;20418;-69
2023/01/05 12:17:59;;;;;;;12.10;3.20;;;12.00;99.90;;;;;;4982964;28;20434;-68
2023/01/05 12:20:33;;;;;;;6.80;3.33;;;12.00;99.90;;;;;;4989509;28;20565;-69
2023/01/05 12:23:36;;;;;;;8.53;2.60;;;12.10;99.90;;;;;;4990864;28;21119;-68
2023/01/05 12:26:23;;;;;;;5.93;2.60;;;12.10;99.90;;;;;;4992034;28;20962;-68
2023/01/05 12:29:20;;;;;;;9.27;2.43;;;12.10;99.90;;;;;;4983471;28;20427;-68
2023/01/05 12:32:23;;;;;;;4.63;2.97;;;12.20;99.90;;;;;;4992221;28;20438;-68
2023/01/05 12:35:23;;;;;;;7.80;4.40;;;12.30;99.90;;;;;;4991755;28;20445;-68
2023/01/05 12:38:09;;;;;;;6.67;2.50;;;12.20;99.90;;;;;;4972876;28;20461;-68
2023/01/05 12:41:15;;;;;;;8.40;2.27;;;12.10;99.90;;;;;;4984394;28;20987;-68
2023/01/05 12:44:02;;;;;;;8.53;2.80;;;12.00;99.90;;;;;;4923154;28;20468;-69
2023/01/05 12:46:50;;;;;;;6.27;2.37;;;12.10;99.90;;;;;;4995127;28;20443;-69
2023/01/05 12:49:54;;;;;;;8.17;2.27;;;12.00;99.90;;;;;;4989547;28;20429;-69
2023/01/05 12:52:34;;;;;;;5.37;2.00;;;11.90;99.90;;;;;;4993436;28;20410;-69
2023/01/05 12:55:16;;;;;;;9.83;2.40;;;11.90;99.90;;;;;;4987216;28;20753;-69
2023/01/05 12:57:48;;;;;;;5.23;2.33;;;11.90;99.90;;;;;;4991882;28;20422;-63
2023/01/05 13:00:17;;;;;;;11.50;3.00;;;11.90;99.90;;;;;;4993976;28;20469;-69
2023/01/05 13:02:57;;;;;;;7.70;2.60;;;12.00;99.90;;;;;;4994879;28;20437;-69
2023/01/05 13:05:26;;;;;;;7.03;2.70;;;12.00;99.90;;;;;;4995284;28;20764;-69
2023/01/05 13:08:16;;;;;;;6.77;2.50;;;12.00;99.90;;;;;;4990398;28;20522;-69
2023/01/05 13:11:03;;;;;;;8.60;2.97;;;12.00;99.90;;;;;;4994523;28;20469;-69
2023/01/05 13:13:35;;;;;;;11.90;2.90;;;12.00;99.90;;;;;;4995193;28;20414;-69
2023/01/05 13:16:09;;;;;;;9.97;3.00;;;12.00;99.90;;;;;;4994817;28;20471;-70
2023/01/05 13:18:39;;;;;;;8.30;2.43;;;12.00;99.90;;;;;;4991827;28;20426;-69
2023/01/05 13:21:05;;;;;;;7.57;3.20;;;12.00;99.90;;;;;;4993642;28;20549;-69
2023/01/05 13:23:39;;;;;;;9.47;2.70;;;12.00;99.90;;;;;;4987529;28;20556;-68
2023/01/05 13:26:10;;;;;;;7.60;3.00;;;12.10;99.90;;;;;;4988166;28;20454;-69
2023/01/05 13:28:36;;;;;;;11.20;4.37;;;12.00;99.90;;;;;;4981464;28;20905;-69
2023/01/05 13:31:22;;;;;;;10.63;2.73;;;11.90;99.90;;;;;;4994142;28;20454;-68
2023/01/05 13:34:06;;;;;;;6.40;3.63;;;11.80;99.90;;;;;;4976375;28;20460;-68
2023/01/05 13:37:02;;;;;;;6.60;2.77;;;11.70;99.90;;;;;;4994803;28;20427;-69
2023/01/05 13:39:49;;;;;;;13.47;2.70;;;11.70;99.90;;;;;;4989805;28;20433;-69